createdAt,value
2023-01-29T00:00:10.560Z,1.90
2023-01-29T00:02:39.383Z,2.47
2023-01-29T00:07:58.482Z,1.97
2023-01-29T00:10:20.953Z,2.07
2023-01-29T00:10:28.235Z,2.00
2023-01-29T00:12:56.492Z,1.43
2023-01-29T00:15:25.207Z,1.93
2023-01-29T00:17:53.405Z,1.70
2023-01-29T00:20:21.921Z,2.60
2023-01-29T00:22:50.881Z,1.90
2023-01-29T00:25:19.003Z,2.03
2023-01-29T00:27:48.558Z,2.10
2023-01-29T00:30:19.942Z,2.20
2023-01-29T00:32:48.898Z,1.40
2023-01-29T00:35:17.224Z,2.00
2023-01-29T00:37:45.515Z,1.77
2023-01-29T00:40:15.122Z,1.83
2023-01-29T00:43:04.058Z,1.70
2023-01-29T00:45:34.205Z,2.40
2023-01-29T00:48:02.438Z,2.00
2023-01-29T00:50:31.126Z,2.07
2023-01-29T00:52:59.626Z,1.80
2023-01-29T00:55:27.961Z,1.80
2023-01-29T00:57:56.665Z,1.90
2023-01-29T01:00:24.997Z,2.77
2023-01-29T01:03:06.113Z,1.60
2023-01-29T01:05:34.440Z,1.80
2023-01-29T01:08:02.868Z,1.77
2023-01-29T01:10:33.208Z,1.90
2023-01-29T01:13:02.953Z,2.53
2023-01-29T01:15:33.615Z,1.87
2023-01-29T01:18:05.584Z,2.13
2023-01-29T01:20:36.410Z,2.20
2023-01-29T01:23:05.253Z,2.40
2023-01-29T01:25:33.689Z,2.13
2023-01-29T01:28:02.419Z,1.67
2023-01-29T01:30:30.885Z,2.20
2023-01-29T01:32:59.233Z,1.80
2023-01-29T01:35:29.117Z,1.70
2023-01-29T01:37:57.226Z,2.10
2023-01-29T01:40:27.345Z,2.00
2023-01-29T01:42:57.607Z,2.00
2023-01-29T01:45:29.606Z,1.97
2023-01-29T01:48:02.835Z,2.00
2023-01-29T01:50:36.413Z,2.40
2023-01-29T01:53:08.586Z,1.90
2023-01-29T01:55:39.515Z,2.13
2023-01-29T01:58:11.497Z,2.27
2023-01-29T02:00:41.108Z,1.80
2023-01-29T02:03:29.216Z,1.67
2023-01-29T02:06:19.156Z,2.20
2023-01-29T02:09:11.964Z,1.93
2023-01-29T02:11:40.768Z,3.07
2023-01-29T02:14:09.835Z,2.10
2023-01-29T02:16:39.020Z,2.10
2023-01-29T02:19:14.214Z,2.33
2023-01-29T02:22:20.933Z,1.80
2023-01-29T02:25:28.842Z,1.87
2023-01-29T02:28:14.139Z,2.67
2023-01-29T02:30:49.264Z,2.10
2023-01-29T02:33:27.593Z,2.20
2023-01-29T02:36:02.234Z,3.53
2023-01-29T02:38:41.754Z,2.30
2023-01-29T02:41:16.954Z,2.40
2023-01-29T02:43:49.163Z,2.30
2023-01-29T02:46:25.038Z,2.73
2023-01-29T02:48:59.044Z,2.90
2023-01-29T02:51:33.457Z,2.77
2023-01-29T02:54:05.610Z,2.73
2023-01-29T02:56:38.650Z,3.07
2023-01-29T02:59:13.633Z,2.33
2023-01-29T03:01:48.740Z,2.50
2023-01-29T03:04:20.754Z,3.10
2023-01-29T03:06:54.615Z,2.93
2023-01-29T03:09:28.058Z,3.17
2023-01-29T03:12:00.333Z,2.80
2023-01-29T03:15:01.475Z,3.07
2023-01-29T03:17:38.733Z,2.87
2023-01-29T03:20:12.361Z,2.33
2023-01-29T03:22:41.878Z,3.13
2023-01-29T03:25:28.589Z,4.40
2023-01-29T03:28:17.717Z,2.80
2023-01-29T03:31:08.965Z,3.20
2023-01-29T03:33:45.763Z,2.80
2023-01-29T03:36:18.898Z,3.07
2023-01-29T03:38:47.545Z,2.80
2023-01-29T03:41:23.578Z,2.80
2023-01-29T03:43:58.166Z,2.93
2023-01-29T03:46:33.330Z,3.27
2023-01-29T03:49:08.492Z,2.63
2023-01-29T03:51:41.281Z,2.43
2023-01-29T03:54:15.727Z,2.63
2023-01-29T03:56:57.226Z,2.83
2023-01-29T03:59:35.627Z,2.57
2023-01-29T04:02:09.475Z,2.90
2023-01-29T04:04:39.943Z,3.00
2023-01-29T04:07:12.500Z,2.33
2023-01-29T04:09:46.649Z,3.27
2023-01-29T04:12:19.013Z,3.07
2023-01-29T04:14:49.322Z,2.40
2023-01-29T04:17:23.719Z,3.50
2023-01-29T04:19:52.522Z,2.83
2023-01-29T04:22:23.271Z,2.40
2023-01-29T04:24:52.394Z,3.30
2023-01-29T04:27:28.713Z,2.70
2023-01-29T04:30:10.250Z,3.03
2023-01-29T04:32:55.690Z,2.83
2023-01-29T04:35:33.205Z,3.20
2023-01-29T04:38:10.285Z,2.93
2023-01-29T04:40:50.774Z,3.43
2023-01-29T04:43:26.854Z,3.43
2023-01-29T04:46:09.136Z,3.13
2023-01-29T04:48:55.147Z,3.03
2023-01-29T04:51:31.997Z,3.20
2023-01-29T04:54:07.443Z,3.17
2023-01-29T04:56:41.424Z,3.70
2023-01-29T04:59:14.696Z,2.60
2023-01-29T05:01:44.564Z,2.27
2023-01-29T05:04:17.859Z,3.73
2023-01-29T05:06:47.768Z,3.90
2023-01-29T05:09:17.585Z,4.00
2023-01-29T05:11:48.890Z,3.73
2023-01-29T05:14:20.728Z,3.70
2023-01-29T05:16:53.379Z,3.37
2023-01-29T05:19:22.920Z,3.60
2023-01-29T05:21:51.572Z,2.63
2023-01-29T05:24:22.158Z,3.50
2023-01-29T05:27:10.042Z,2.93
2023-01-29T05:29:38.307Z,3.60
2023-01-29T05:32:07.274Z,2.97
2023-01-29T05:34:37.135Z,3.20
2023-01-29T05:37:05.694Z,3.53
2023-01-29T05:39:34.386Z,3.30
2023-01-29T05:42:03.368Z,3.80
2023-01-29T05:44:31.554Z,3.77
2023-01-29T05:47:02.639Z,3.67
2023-01-29T05:49:31.232Z,3.57
2023-01-29T05:52:00.789Z,3.03
2023-01-29T05:54:29.046Z,3.47
2023-01-29T05:56:57.657Z,3.30
2023-01-29T05:59:25.983Z,3.40
2023-01-29T06:01:54.254Z,3.70
2023-01-29T06:04:22.748Z,2.80
2023-01-29T06:06:51.508Z,3.73
2023-01-29T06:09:21.057Z,4.13
2023-01-29T06:11:49.465Z,3.70
2023-01-29T06:14:17.761Z,2.37
2023-01-29T06:16:45.929Z,3.40
2023-01-29T06:19:14.047Z,3.77
2023-01-29T06:21:42.869Z,3.73
2023-01-29T06:24:11.246Z,3.87
2023-01-29T06:26:40.807Z,3.33
2023-01-29T06:29:09.445Z,3.40
2023-01-29T06:31:39.255Z,3.00
2023-01-29T06:34:08.060Z,3.43
2023-01-29T06:36:36.806Z,3.30
2023-01-29T06:39:06.001Z,3.37
2023-01-29T06:41:34.369Z,2.87
2023-01-29T06:44:04.258Z,3.27
2023-01-29T06:46:32.534Z,3.07
2023-01-29T06:49:01.318Z,3.97
2023-01-29T06:51:29.983Z,3.73
2023-01-29T06:53:58.139Z,3.37
2023-01-29T06:56:26.462Z,3.63
2023-01-29T06:58:54.998Z,4.33
2023-01-29T07:01:35.671Z,3.37
2023-01-29T07:04:05.316Z,3.80
2023-01-29T07:06:33.947Z,4.03
2023-01-29T07:09:02.141Z,3.83
2023-01-29T07:11:30.645Z,3.23
2023-01-29T07:13:58.811Z,3.17
2023-01-29T07:16:28.526Z,3.77
2023-01-29T07:18:57.469Z,3.23
2023-01-29T07:21:25.813Z,3.23
2023-01-29T07:23:54.023Z,3.13
2023-01-29T07:26:22.671Z,3.13
2023-01-29T07:28:50.873Z,2.97
2023-01-29T07:31:19.281Z,3.47
2023-01-29T07:33:49.327Z,3.03
2023-01-29T07:36:17.561Z,2.93
2023-01-29T07:38:49.815Z,3.37
2023-01-29T07:41:18.574Z,3.20
2023-01-29T07:43:46.714Z,3.57
2023-01-29T07:46:15.212Z,3.43
2023-01-29T07:48:43.784Z,3.63
2023-01-29T07:51:13.496Z,3.10
2023-01-29T07:53:42.005Z,3.17
2023-01-29T07:56:10.372Z,3.40
2023-01-29T07:58:38.602Z,3.13
2023-01-29T08:01:08.567Z,2.47
2023-01-29T08:03:37.071Z,3.20
2023-01-29T08:06:05.574Z,3.00
2023-01-29T08:08:35.232Z,2.97
2023-01-29T08:11:04.739Z,2.33
2023-01-29T08:13:33.718Z,3.07
2023-01-29T08:16:02.764Z,2.77
2023-01-29T08:18:32.798Z,1.97
2023-01-29T08:21:02.119Z,2.60
2023-01-29T08:23:30.411Z,2.17
2023-01-29T08:26:00.642Z,2.97
2023-01-29T08:28:28.932Z,2.57
2023-01-29T08:30:57.297Z,2.80
2023-01-29T08:33:38.659Z,2.43
2023-01-29T08:36:08.276Z,2.50
2023-01-29T08:38:37.210Z,2.53
2023-01-29T08:41:07.153Z,2.50
2023-01-29T08:43:37.029Z,2.63
2023-01-29T08:46:05.822Z,2.13
2023-01-29T08:48:34.357Z,1.80
2023-01-29T08:51:04.597Z,2.30
2023-01-29T08:53:33.344Z,2.27
2023-01-29T08:56:01.613Z,2.00
2023-01-29T08:58:31.192Z,1.90
2023-01-29T09:01:07.207Z,2.20
2023-01-29T09:03:35.464Z,1.87
2023-01-29T09:06:03.886Z,2.00
2023-01-29T09:08:32.192Z,2.17
2023-01-29T09:11:00.978Z,2.00
2023-01-29T09:13:30.592Z,2.30
2023-01-29T09:16:01.705Z,2.57
2023-01-29T09:18:31.376Z,2.53
2023-01-29T09:20:59.678Z,2.40
2023-01-29T09:23:27.971Z,2.47
2023-01-29T09:25:56.202Z,2.07
2023-01-29T09:28:24.816Z,2.23
2023-01-29T09:30:54.567Z,1.97
2023-01-29T09:33:24.722Z,2.40
2023-01-29T09:35:53.037Z,2.67
2023-01-29T09:38:21.521Z,1.70
2023-01-29T09:40:57.120Z,1.67
2023-01-29T09:43:41.742Z,2.17
2023-01-29T09:46:19.281Z,2.63
2023-01-29T09:48:49.951Z,2.20
2023-01-29T09:51:27.182Z,2.57
2023-01-29T09:54:05.709Z,1.67
2023-01-29T09:56:34.063Z,2.00
2023-01-29T09:59:02.260Z,2.60
2023-01-29T10:01:38.215Z,1.60
2023-01-29T10:04:37.637Z,2.00
2023-01-29T10:07:23.854Z,2.30
2023-01-29T10:10:30.480Z,1.80
2023-01-29T10:13:07.958Z,1.87
2023-01-29T10:15:47.502Z,0.97
2023-01-29T10:18:55.911Z,2.00
2023-01-29T10:21:38.438Z,2.10
2023-01-29T10:24:18.864Z,2.03
2023-01-29T10:26:47.481Z,1.43
2023-01-29T10:29:22.070Z,1.97
2023-01-29T10:31:56.384Z,2.40
2023-01-29T10:34:33.328Z,1.00
2023-01-29T10:37:13.153Z,1.90
2023-01-29T10:39:41.760Z,2.00
2023-01-29T10:42:27.969Z,2.10
2023-01-29T10:45:11.013Z,1.83
2023-01-29T10:48:06.295Z,1.83
2023-01-29T10:50:46.808Z,2.07
2023-01-29T10:53:38.317Z,1.70
2023-01-29T10:56:23.350Z,1.83
2023-01-29T10:58:55.879Z,1.13
2023-01-29T11:01:24.419Z,1.73
2023-01-29T11:03:59.790Z,2.40
2023-01-29T11:06:33.787Z,2.07
2023-01-29T11:09:11.152Z,2.07
2023-01-29T11:11:45.285Z,1.63
2023-01-29T11:14:17.275Z,1.67
2023-01-29T11:16:48.000Z,2.10
2023-01-29T11:19:17.765Z,1.70
2023-01-29T11:21:57.847Z,1.60
2023-01-29T11:24:26.619Z,2.00
2023-01-29T11:26:58.782Z,1.43
2023-01-29T11:29:40.313Z,1.43
2023-01-29T11:32:14.160Z,1.50
2023-01-29T11:35:02.423Z,2.00
2023-01-29T11:37:37.738Z,1.73
2023-01-29T11:40:36.326Z,1.40
2023-01-29T11:43:24.844Z,1.80
2023-01-29T11:45:55.866Z,1.60
2023-01-29T11:48:29.401Z,1.87
2023-01-29T11:51:00.638Z,1.30
2023-01-29T11:53:37.681Z,2.17
2023-01-29T11:56:16.802Z,1.37
2023-01-29T11:58:46.361Z,1.60
2023-01-29T12:01:16.765Z,1.70
2023-01-29T12:03:52.158Z,1.70
2023-01-29T12:06:24.159Z,1.57
2023-01-29T12:08:59.114Z,2.37
2023-01-29T12:11:30.573Z,1.83
2023-01-29T12:14:01.382Z,2.23
2023-01-29T12:16:34.160Z,1.70
2023-01-29T12:19:11.698Z,1.90
2023-01-29T12:21:48.304Z,1.77
2023-01-29T12:24:35.174Z,1.37
2023-01-29T12:27:09.069Z,1.60
2023-01-29T12:29:44.598Z,1.50
2023-01-29T12:32:23.570Z,1.10
2023-01-29T12:34:56.614Z,1.50
2023-01-29T12:37:32.005Z,1.87
2023-01-29T12:40:03.103Z,1.80
2023-01-29T12:42:32.890Z,1.23
2023-01-29T12:45:05.113Z,1.60
2023-01-29T12:47:37.300Z,2.03
2023-01-29T12:50:11.495Z,1.23
2023-01-29T12:52:43.034Z,1.30
2023-01-29T12:55:19.506Z,1.80
2023-01-29T12:57:55.634Z,1.50
2023-01-29T13:00:26.653Z,1.90
2023-01-29T13:03:00.524Z,1.90
2023-01-29T13:05:31.970Z,1.67
2023-01-29T13:08:06.389Z,2.60
2023-01-29T13:10:39.726Z,1.67
2023-01-29T13:13:16.290Z,1.20
2023-01-29T13:15:45.803Z,2.20
2023-01-29T13:18:36.984Z,2.13
2023-01-29T13:21:06.611Z,1.57
2023-01-29T13:23:39.493Z,1.90
2023-01-29T13:26:09.235Z,1.30
2023-01-29T13:28:38.158Z,1.33
2023-01-29T13:31:31.994Z,2.53
2023-01-29T13:34:13.835Z,1.03
2023-01-29T13:36:45.479Z,1.47
2023-01-29T13:39:23.881Z,1.40
2023-01-29T13:41:54.934Z,1.67
2023-01-29T13:44:27.390Z,1.20
2023-01-29T13:46:58.861Z,1.37
2023-01-29T13:49:33.001Z,2.10
2023-01-29T13:52:21.224Z,1.17
2023-01-29T13:54:57.351Z,1.40
2023-01-29T13:57:57.927Z,1.80
2023-01-29T14:01:02.556Z,1.03
2023-01-29T14:04:04.840Z,1.27
2023-01-29T14:06:48.359Z,1.80
2023-01-29T14:09:55.441Z,2.00
2023-01-29T14:12:48.286Z,1.60
2023-01-29T14:15:34.992Z,0.80
2023-01-29T14:18:21.394Z,1.73
2023-01-29T14:20:59.330Z,1.30
2023-01-29T14:23:44.365Z,1.40
2023-01-29T14:26:27.433Z,1.97
2023-01-29T14:29:01.542Z,1.33
2023-01-29T14:31:32.538Z,1.37
2023-01-29T14:34:06.043Z,1.87
2023-01-29T14:36:41.208Z,1.77
2023-01-29T14:39:26.474Z,1.20
2023-01-29T14:41:55.008Z,1.50
2023-01-29T14:45:07.663Z,1.37
2023-01-29T14:48:00.857Z,1.80
2023-01-29T14:50:50.720Z,1.23
2023-01-29T14:53:24.816Z,1.33
2023-01-29T14:55:58.863Z,1.07
2023-01-29T14:58:36.485Z,1.70
2023-01-29T15:01:08.874Z,1.20
2023-01-29T15:03:44.239Z,0.90
2023-01-29T15:06:18.550Z,1.60
2023-01-29T15:08:52.521Z,1.50
2023-01-29T15:11:38.175Z,1.40
2023-01-29T15:14:24.216Z,1.80
2023-01-29T15:17:01.673Z,1.73
2023-01-29T15:19:36.941Z,0.97
2023-01-29T15:22:07.253Z,1.40
2023-01-29T15:24:35.586Z,1.50
2023-01-29T15:27:04.334Z,1.90
2023-01-29T15:29:32.709Z,1.53
2023-01-29T15:32:01.842Z,1.33
2023-01-29T15:34:31.895Z,1.30
2023-01-29T15:37:00.269Z,1.43
2023-01-29T15:39:30.926Z,1.10
2023-01-29T15:42:15.658Z,1.03
2023-01-29T15:44:47.553Z,1.40
2023-01-29T15:47:16.900Z,1.40
2023-01-29T15:49:49.126Z,1.80
2023-01-29T15:52:20.882Z,2.53
2023-01-29T15:54:49.413Z,2.20
2023-01-29T15:57:23.983Z,1.60
2023-01-29T15:59:54.407Z,1.27
2023-01-29T16:02:38.797Z,1.10
2023-01-29T16:05:14.708Z,1.40
2023-01-29T16:07:43.998Z,1.90
2023-01-29T16:10:18.847Z,1.80
2023-01-29T16:12:51.983Z,1.97
2023-01-29T16:15:32.354Z,1.43
2023-01-29T16:18:01.602Z,2.00
2023-01-29T16:20:40.157Z,1.20
2023-01-29T16:23:16.902Z,1.43
2023-01-29T16:25:45.427Z,1.83
2023-01-29T16:28:13.694Z,1.30
2023-01-29T16:30:42.112Z,1.60
2023-01-29T16:33:15.049Z,1.20
2023-01-29T16:35:52.440Z,1.00
2023-01-29T16:38:28.653Z,1.07
2023-01-29T16:41:09.387Z,1.40
2023-01-29T16:43:49.649Z,1.60
2023-01-29T16:46:28.353Z,1.70
2023-01-29T16:48:56.550Z,1.57
2023-01-29T16:51:31.564Z,1.40
2023-01-29T16:54:02.285Z,2.50
2023-01-29T16:56:34.042Z,1.53
2023-01-29T16:59:04.443Z,1.20
2023-01-29T17:01:33.607Z,2.17
2023-01-29T17:04:08.153Z,2.57
2023-01-29T17:06:38.594Z,1.90
2023-01-29T17:09:08.021Z,1.63
2023-01-29T17:11:38.548Z,1.00
2023-01-29T17:14:08.597Z,1.67
2023-01-29T17:16:38.582Z,1.70
2023-01-29T17:19:20.855Z,1.50
2023-01-29T17:21:51.113Z,1.13
2023-01-29T17:24:19.265Z,1.17
2023-01-29T17:26:48.130Z,1.17
2023-01-29T17:29:20.463Z,1.70
2023-01-29T17:31:49.228Z,1.83
2023-01-29T17:34:18.738Z,1.53
2023-01-29T17:36:47.145Z,1.80
2023-01-29T17:39:20.446Z,2.60
2023-01-29T17:41:51.162Z,2.10
2023-01-29T17:44:19.830Z,2.43
2023-01-29T17:46:48.599Z,1.00
2023-01-29T17:49:24.103Z,1.20
2023-01-29T17:51:53.021Z,1.67
2023-01-29T17:54:23.898Z,0.90
2023-01-29T17:56:54.692Z,1.20
2023-01-29T17:59:31.307Z,1.70
2023-01-29T18:01:59.789Z,1.90
2023-01-29T18:04:28.438Z,1.50
2023-01-29T18:06:59.029Z,1.50
2023-01-29T18:09:28.981Z,1.20
2023-01-29T18:11:57.115Z,1.37
2023-01-29T18:14:25.299Z,1.50
2023-01-29T18:16:54.190Z,1.40
2023-01-29T18:19:27.442Z,1.93
2023-01-29T18:21:56.508Z,2.00
2023-01-29T18:24:26.670Z,1.30
2023-01-29T18:26:56.404Z,1.50
2023-01-29T18:29:29.493Z,0.97
2023-01-29T18:31:57.953Z,1.10
2023-01-29T18:34:26.768Z,1.40
2023-01-29T18:36:54.850Z,1.60
2023-01-29T18:39:23.123Z,1.17
2023-01-29T18:41:51.863Z,1.40
2023-01-29T18:44:21.506Z,1.70
2023-01-29T18:46:49.659Z,1.13
2023-01-29T18:49:18.247Z,1.50
2023-01-29T18:51:46.511Z,1.30
2023-01-29T18:54:14.773Z,1.80
2023-01-29T18:57:13.397Z,1.70
2023-01-29T18:59:32.838Z,1.13
2023-01-29T19:02:01.233Z,1.20
2023-01-29T19:04:29.488Z,1.30
2023-01-29T19:06:57.914Z,1.27
2023-01-29T19:09:26.210Z,0.73
2023-01-29T19:11:54.734Z,1.20
2023-01-29T19:14:23.297Z,1.30
2023-01-29T19:16:52.952Z,1.57
2023-01-29T19:19:21.687Z,1.30
2023-01-29T19:21:52.797Z,0.90
2023-01-29T19:24:21.098Z,0.97
2023-01-29T19:26:49.988Z,1.10
2023-01-29T19:29:18.948Z,1.20
2023-01-29T19:31:47.235Z,0.87
2023-01-29T19:34:16.986Z,1.20
2023-01-29T19:36:45.503Z,1.50
2023-01-29T19:39:14.716Z,1.30
2023-01-29T19:41:43.323Z,1.20
2023-01-29T19:44:12.626Z,1.13
2023-01-29T19:46:40.823Z,1.20
2023-01-29T19:49:10.279Z,1.10
2023-01-29T19:51:41.296Z,1.03
2023-01-29T19:54:10.746Z,1.50
2023-01-29T19:56:39.367Z,1.47
2023-01-29T19:59:07.530Z,1.23
2023-01-29T20:01:35.807Z,0.93
2023-01-29T20:04:04.683Z,1.47
2023-01-29T20:06:33.233Z,1.20
2023-01-29T20:09:02.970Z,1.30
2023-01-29T20:11:32.131Z,1.57
2023-01-29T20:14:00.682Z,1.60
2023-01-29T20:16:28.956Z,1.10
2023-01-29T20:19:13.163Z,1.10
2023-01-29T20:21:45.899Z,1.57
2023-01-29T20:24:16.026Z,1.20
2023-01-29T20:26:44.509Z,0.90
2023-01-29T20:29:13.432Z,1.17
2023-01-29T20:31:41.665Z,1.60
2023-01-29T20:34:11.327Z,1.73
2023-01-29T20:36:39.480Z,0.90
2023-01-29T20:39:07.748Z,1.40
2023-01-29T20:41:41.483Z,1.33
2023-01-29T20:44:10.490Z,1.40
2023-01-29T20:46:39.260Z,1.33
2023-01-29T20:49:08.055Z,1.10
2023-01-29T20:51:36.791Z,1.80
2023-01-29T20:54:05.557Z,1.63
2023-01-29T20:56:40.109Z,1.33
2023-01-29T20:59:12.586Z,1.77
2023-01-29T21:01:40.826Z,1.40
2023-01-29T21:04:08.934Z,2.33
2023-01-29T21:06:37.213Z,1.67
2023-01-29T21:09:05.664Z,1.57
2023-01-29T21:11:34.536Z,1.60
2023-01-29T21:14:02.748Z,1.37
2023-01-29T21:16:32.486Z,1.53
2023-01-29T21:19:00.938Z,1.90
2023-01-29T21:21:29.117Z,1.63
2023-01-29T21:23:58.304Z,1.70
2023-01-29T21:26:26.549Z,1.33
2023-01-29T21:28:54.766Z,1.50
2023-01-29T21:31:23.447Z,1.40
2023-01-29T21:33:53.020Z,1.33
2023-01-29T21:36:21.227Z,1.27
2023-01-29T21:38:49.805Z,1.80
2023-01-29T21:41:18.142Z,1.77
2023-01-29T21:43:45.496Z,1.80
2023-01-29T21:46:13.922Z,1.50
2023-01-29T21:48:42.390Z,1.70
2023-01-29T21:51:12.092Z,1.60
2023-01-29T21:53:40.445Z,1.83
2023-01-29T21:56:09.020Z,1.50
2023-01-29T21:58:37.142Z,1.43
2023-01-29T22:01:36.676Z,1.30
2023-01-29T22:03:56.031Z,1.80
2023-01-29T22:06:25.966Z,1.67
2023-01-29T22:08:54.180Z,1.93
2023-01-29T22:11:22.810Z,1.50
2023-01-29T22:13:51.222Z,1.70
2023-01-29T22:16:19.387Z,1.23
2023-01-29T22:18:47.825Z,1.50
2023-01-29T22:21:16.155Z,1.57
2023-01-29T22:23:50.455Z,1.13
2023-01-29T22:26:19.171Z,1.63
2023-01-29T22:28:47.398Z,1.40
2023-01-29T22:31:16.175Z,1.63
2023-01-29T22:33:45.033Z,1.80
2023-01-29T22:36:13.249Z,1.43
2023-01-29T22:38:43.406Z,1.60
2023-01-29T22:41:13.932Z,1.83
2023-01-29T22:43:43.967Z,1.67
2023-01-29T22:46:13.048Z,1.03
2023-01-29T22:48:41.274Z,2.30
2023-01-29T22:51:10.933Z,1.40
2023-01-29T22:53:40.291Z,1.20
2023-01-29T22:56:09.902Z,2.03
2023-01-29T22:58:41.229Z,1.67
2023-01-29T23:01:09.694Z,2.07
2023-01-29T23:03:38.364Z,1.70
2023-01-29T23:06:06.634Z,1.20
2023-01-29T23:08:34.935Z,1.70
2023-01-29T23:11:14.846Z,1.67
2023-01-29T23:13:46.430Z,1.57
2023-01-29T23:16:15.794Z,1.07
2023-01-29T23:18:44.724Z,1.60
2023-01-29T23:21:13.902Z,1.47
2023-01-29T23:23:44.674Z,1.20
2023-01-29T23:26:31.544Z,1.23
2023-01-29T23:29:01.890Z,1.23
2023-01-29T23:31:30.145Z,1.20
2023-01-29T23:33:58.437Z,1.17
2023-01-29T23:36:26.706Z,1.23
2023-01-29T23:38:54.944Z,1.10
2023-01-29T23:41:23.189Z,1.03
2023-01-29T23:43:51.430Z,1.10
2023-01-29T23:46:21.271Z,1.30
2023-01-29T23:48:49.522Z,0.87
2023-01-29T23:51:17.683Z,1.13
2023-01-29T23:53:45.947Z,1.40
2023-01-29T23:56:14.336Z,1.10
2023-01-29T23:58:42.475Z,1.10
